createdAt,value
2022-11-20T00:03:59.197Z,29.10
2022-11-20T00:09:03.731Z,31.40
2022-11-20T00:14:08.115Z,32.20
2022-11-20T00:19:10.936Z,32.50
2022-11-20T00:24:13.876Z,33.60
2022-11-20T00:29:16.753Z,32.40
2022-11-20T00:34:20.044Z,32.40
2022-11-20T00:39:23.221Z,31.60
2022-11-20T00:44:27.567Z,32.70
2022-11-20T00:49:33.280Z,33.10
2022-11-20T00:54:36.231Z,34.00
2022-11-20T00:59:39.300Z,34.20
2022-11-20T01:04:43.091Z,33.20
2022-11-20T01:09:47.409Z,32.90
2022-11-20T01:14:50.185Z,34.50
2022-11-20T01:19:53.102Z,32.50
2022-11-20T01:24:57.657Z,32.00
2022-11-20T01:30:02.738Z,32.70
2022-11-20T01:35:06.703Z,31.10
2022-11-20T01:40:12.163Z,32.30
2022-11-20T01:46:06.767Z,31.70
2022-11-20T01:51:27.483Z,31.30
2022-11-20T01:56:32.371Z,31.90
2022-11-20T02:01:35.533Z,31.50
2022-11-20T02:06:47.092Z,32.00
2022-11-20T02:11:50.655Z,31.20
2022-11-20T02:16:54.857Z,32.40
2022-11-20T02:22:29.652Z,30.80
2022-11-20T02:27:32.934Z,29.50
2022-11-20T02:32:36.852Z,30.90
2022-11-20T02:37:41.066Z,29.20
2022-11-20T02:42:43.894Z,30.00
2022-11-20T02:47:48.178Z,31.00
2022-11-20T02:52:51.475Z,29.00
2022-11-20T02:57:56.053Z,29.20
2022-11-20T03:02:58.879Z,30.80
2022-11-20T03:08:01.706Z,31.60
2022-11-20T03:13:04.930Z,31.70
2022-11-20T03:18:07.740Z,31.50
2022-11-20T03:23:11.242Z,32.90
2022-11-20T03:28:16.213Z,31.10
2022-11-20T03:33:19.147Z,32.30
2022-11-20T03:38:21.941Z,31.80
2022-11-20T03:43:24.858Z,32.30
2022-11-20T03:48:27.735Z,30.40
2022-11-20T03:53:30.653Z,31.10
2022-11-20T03:58:36.916Z,31.50
2022-11-20T04:03:40.498Z,30.00
2022-11-20T04:08:43.435Z,31.00
2022-11-20T04:13:52.263Z,30.50
2022-11-20T04:18:56.606Z,31.50
2022-11-20T04:24:00.210Z,27.70
2022-11-20T04:29:03.250Z,29.40
2022-11-20T04:34:07.577Z,29.60
2022-11-20T04:39:16.377Z,29.50
2022-11-20T04:44:19.178Z,29.30
2022-11-20T04:49:22.332Z,29.20
2022-11-20T04:54:25.548Z,28.40
2022-11-20T04:59:30.669Z,29.60
2022-11-20T05:04:34.216Z,28.20
2022-11-20T05:09:36.995Z,26.90
2022-11-20T05:14:40.772Z,28.00
2022-11-20T05:19:44.109Z,29.10
2022-11-20T05:24:47.176Z,27.10
2022-11-20T05:29:50.057Z,25.60
2022-11-20T05:34:53.549Z,29.30
2022-11-20T05:39:56.340Z,28.50
2022-11-20T05:45:00.192Z,28.50
2022-11-20T05:50:03.284Z,29.30
2022-11-20T05:55:07.098Z,28.30
2022-11-20T06:00:11.349Z,28.30
2022-11-20T06:05:14.411Z,28.20
2022-11-20T06:10:17.767Z,28.20
2022-11-20T06:15:21.105Z,29.60
2022-11-20T06:20:24.612Z,28.80
2022-11-20T06:25:28.027Z,29.70
2022-11-20T06:30:31.679Z,28.10
2022-11-20T06:35:35.284Z,28.70
2022-11-20T06:40:42.286Z,27.50
2022-11-20T06:45:45.118Z,29.90
2022-11-20T06:50:48.063Z,28.40
2022-11-20T06:55:51.397Z,28.70
2022-11-20T07:00:54.886Z,28.60
2022-11-20T07:05:59.678Z,29.30
2022-11-20T07:11:05.945Z,28.50
2022-11-20T07:16:09.330Z,28.60
2022-11-20T07:21:12.760Z,30.50
2022-11-20T07:26:15.616Z,30.20
2022-11-20T07:31:19.719Z,29.40
2022-11-20T07:36:23.825Z,29.40
2022-11-20T07:41:26.632Z,29.20
2022-11-20T07:46:29.474Z,31.40
2022-11-20T07:51:32.729Z,29.90
2022-11-20T07:56:35.545Z,29.50
2022-11-20T08:01:39.931Z,29.50
2022-11-20T08:06:43.048Z,30.20
2022-11-20T08:12:04.609Z,30.30
2022-11-20T08:17:07.392Z,27.40
2022-11-20T08:22:10.190Z,28.20
2022-11-20T08:27:13.077Z,27.40
2022-11-20T08:32:15.947Z,28.40
2022-11-20T08:37:20.042Z,27.60
2022-11-20T08:42:23.772Z,27.70
2022-11-20T08:47:26.578Z,29.30
2022-11-20T08:52:29.443Z,27.40
2022-11-20T08:57:34.661Z,30.80
2022-11-20T09:02:37.551Z,29.30
2022-11-20T09:07:42.209Z,27.70
2022-11-20T09:12:49.876Z,28.50
2022-11-20T09:17:59.291Z,29.10
2022-11-20T09:23:02.098Z,29.20
2022-11-20T09:28:05.164Z,29.10
2022-11-20T09:33:09.289Z,31.50
2022-11-20T09:38:12.199Z,30.10
2022-11-20T09:43:34.942Z,28.80
2022-11-20T09:49:12.429Z,30.00
2022-11-20T09:54:19.120Z,30.30
2022-11-20T09:59:42.096Z,30.00
2022-11-20T10:04:50.720Z,30.60
2022-11-20T10:09:57.427Z,30.30
2022-11-20T10:15:32.171Z,30.90
2022-11-20T10:20:41.222Z,30.20
2022-11-20T10:25:57.402Z,34.80
2022-11-20T10:31:14.497Z,29.80
2022-11-20T10:36:29.494Z,30.40
2022-11-20T10:41:40.044Z,31.60
2022-11-20T10:46:45.372Z,31.90
2022-11-20T10:51:54.302Z,31.20
2022-11-20T10:57:15.103Z,31.00
2022-11-20T11:02:23.196Z,30.00
2022-11-20T11:07:35.177Z,30.40
2022-11-20T11:12:51.961Z,29.30
2022-11-20T11:17:54.901Z,28.90
2022-11-20T11:23:00.556Z,30.50
2022-11-20T11:28:26.025Z,32.00
2022-11-20T11:33:34.601Z,28.40
2022-11-20T11:38:42.265Z,29.60
2022-11-20T11:44:22.194Z,29.60
2022-11-20T11:49:25.580Z,29.30
2022-11-20T11:55:10.247Z,29.70
2022-11-20T12:00:22.046Z,30.70
2022-11-20T12:05:30.235Z,28.10
2022-11-20T12:10:47.156Z,29.40
2022-11-20T12:15:51.058Z,29.90
2022-11-20T12:21:26.056Z,29.70
2022-11-20T12:26:58.270Z,30.70
2022-11-20T12:32:07.927Z,29.00
2022-11-20T12:37:56.418Z,27.90
2022-11-20T12:43:44.046Z,29.50
2022-11-20T12:49:12.339Z,28.90
2022-11-20T12:54:37.077Z,29.40
2022-11-20T13:00:11.902Z,30.10
2022-11-20T13:06:03.061Z,29.00
2022-11-20T13:11:32.676Z,29.60
2022-11-20T13:17:13.832Z,28.30
2022-11-20T13:22:28.663Z,29.50
2022-11-20T13:27:33.129Z,28.30
2022-11-20T13:32:36.199Z,29.00
2022-11-20T13:37:39.154Z,27.10
2022-11-20T13:42:47.321Z,28.00
2022-11-20T13:47:51.586Z,27.40
2022-11-20T13:53:08.238Z,28.80
2022-11-20T13:58:54.868Z,28.60
2022-11-20T14:04:06.429Z,28.00
2022-11-20T14:09:25.923Z,28.10
2022-11-20T14:14:30.641Z,27.70
2022-11-20T14:19:38.010Z,27.50
2022-11-20T14:24:40.932Z,30.00
2022-11-20T14:29:43.804Z,29.10
2022-11-20T14:34:49.139Z,30.20
2022-11-20T14:39:54.917Z,30.60
2022-11-20T14:44:59.742Z,30.00
2022-11-20T14:50:07.212Z,29.90
2022-11-20T14:55:16.837Z,29.30
2022-11-20T15:00:22.407Z,29.50
2022-11-20T15:05:45.740Z,27.30
2022-11-20T15:10:50.012Z,29.10
2022-11-20T15:15:56.102Z,31.20
2022-11-20T15:21:02.655Z,32.80
2022-11-20T15:26:15.388Z,32.30
2022-11-20T15:31:23.788Z,29.30
2022-11-20T15:36:26.693Z,30.30
2022-11-20T15:41:29.608Z,30.10
2022-11-20T15:46:40.928Z,30.90
2022-11-20T15:51:49.659Z,30.00
2022-11-20T15:56:55.366Z,29.40
2022-11-20T16:01:58.210Z,30.30
2022-11-20T16:07:02.441Z,31.20
2022-11-20T16:12:05.619Z,34.40
2022-11-20T16:17:09.450Z,33.80
2022-11-20T16:22:12.423Z,31.00
2022-11-20T16:27:15.348Z,31.40
2022-11-20T16:32:18.185Z,31.00
2022-11-20T16:37:20.969Z,33.10
2022-11-20T16:42:23.877Z,32.20
2022-11-20T16:47:26.690Z,30.70
2022-11-20T16:52:31.235Z,30.40
2022-11-20T16:57:36.333Z,28.30
2022-11-20T17:02:39.162Z,29.00
2022-11-20T17:07:42.044Z,29.90
2022-11-20T17:12:46.020Z,27.40
2022-11-20T17:17:48.827Z,25.50
2022-11-20T17:22:52.081Z,25.80
2022-11-20T17:27:54.914Z,26.60
2022-11-20T17:32:59.013Z,26.90
2022-11-20T17:38:02.985Z,26.40
2022-11-20T17:43:06.022Z,26.40
2022-11-20T17:48:09.388Z,27.60
2022-11-20T17:53:12.731Z,29.00
2022-11-20T17:58:15.531Z,28.70
2022-11-20T18:03:38.460Z,29.00
2022-11-20T18:08:41.849Z,28.10
2022-11-20T18:14:04.932Z,29.20
2022-11-20T18:19:07.781Z,28.20
2022-11-20T18:24:10.972Z,29.70
2022-11-20T18:29:14.115Z,31.30
2022-11-20T18:34:17.463Z,30.80
2022-11-20T18:39:24.259Z,32.40
2022-11-20T18:44:48.670Z,31.80
2022-11-20T18:49:53.530Z,34.90
2022-11-20T18:54:56.469Z,34.10
2022-11-20T19:00:08.471Z,33.30
2022-11-20T19:05:13.962Z,34.80
2022-11-20T19:10:20.432Z,35.30
2022-11-20T19:15:24.873Z,32.80
2022-11-20T19:20:27.812Z,32.20
2022-11-20T19:25:37.905Z,34.40
2022-11-20T19:30:41.810Z,33.20
2022-11-20T19:35:44.748Z,34.30
2022-11-20T19:40:47.608Z,34.40
2022-11-20T19:45:50.477Z,34.80
2022-11-20T19:50:53.289Z,33.10
2022-11-20T19:55:57.987Z,31.90
2022-11-20T20:01:10.817Z,31.30
2022-11-20T20:06:19.216Z,32.30
2022-11-20T20:16:26.671Z,32.70
2022-11-20T20:21:30.720Z,32.80
2022-11-20T20:26:33.655Z,33.60
2022-11-20T20:31:36.631Z,33.60
2022-11-20T20:36:39.433Z,32.30
2022-11-20T20:41:42.386Z,34.50
2022-11-20T20:46:45.279Z,33.60
2022-11-20T20:51:48.071Z,33.60
2022-11-20T20:56:51.840Z,34.80
2022-11-20T21:01:54.873Z,34.50
2022-11-20T21:06:59.602Z,34.90
2022-11-20T21:12:02.568Z,32.10
2022-11-20T21:17:05.363Z,32.10
2022-11-20T21:22:08.837Z,35.50
2022-11-20T21:27:11.660Z,34.80
2022-11-20T21:32:14.502Z,34.50
2022-11-20T21:37:18.231Z,33.10
2022-11-20T21:42:21.512Z,35.50
2022-11-20T21:47:24.661Z,36.50
2022-11-20T21:52:27.403Z,35.40
2022-11-20T21:57:32.915Z,33.90
2022-11-20T22:02:35.690Z,36.30
2022-11-20T22:07:38.498Z,36.10
2022-11-20T22:12:41.559Z,34.70
2022-11-20T22:18:02.999Z,34.10
2022-11-20T22:23:05.984Z,36.00
2022-11-20T22:28:16.573Z,37.80
2022-11-20T22:33:19.957Z,36.40
2022-11-20T22:38:29.347Z,36.30
2022-11-20T22:43:32.634Z,37.60
2022-11-20T22:48:37.481Z,37.70
2022-11-20T22:53:41.614Z,38.60
2022-11-20T22:58:47.021Z,36.50
2022-11-20T23:04:05.244Z,37.50
2022-11-20T23:09:09.618Z,38.10
2022-11-20T23:14:13.771Z,37.90
2022-11-20T23:19:17.051Z,37.40
2022-11-20T23:24:21.058Z,36.70
2022-11-20T23:29:23.837Z,37.50
2022-11-20T23:34:27.019Z,39.50
2022-11-20T23:39:30.099Z,38.00
2022-11-20T23:44:32.975Z,39.30
2022-11-20T23:49:35.836Z,38.10
2022-11-20T23:54:38.610Z,40.50
2022-11-20T23:59:41.452Z,38.60
